createdAt,value
2022-07-27T00:04:51.822Z,0.00
2022-07-27T00:16:52.254Z,0.02
2022-07-27T00:28:52.680Z,0.01
2022-07-27T00:40:53.127Z,0.01
2022-07-27T00:52:53.559Z,0.00
2022-07-27T01:04:57.051Z,0.13
2022-07-27T01:16:54.454Z,0.58
2022-07-27T01:28:54.926Z,0.01
2022-07-27T01:40:55.413Z,0.16
2022-07-27T01:52:55.833Z,0.01
2022-07-27T02:04:56.357Z,0.00
2022-07-27T02:16:56.765Z,0.35
2022-07-27T02:28:57.244Z,0.00
2022-07-27T02:40:57.662Z,0.00
2022-07-27T02:52:58.134Z,0.03
2022-07-27T03:04:58.570Z,0.60
2022-07-27T03:16:59.050Z,0.02
2022-07-27T03:28:59.501Z,0.00
2022-07-27T03:40:59.913Z,0.00
2022-07-27T03:53:00.355Z,0.10
2022-07-27T04:05:00.853Z,0.38
2022-07-27T04:17:01.417Z,0.80
2022-07-27T04:29:01.764Z,1.55
2022-07-27T04:41:02.223Z,0.73
2022-07-27T04:53:02.694Z,0.33
2022-07-27T05:05:03.122Z,0.17
2022-07-27T05:17:05.109Z,0.59
2022-07-27T05:29:04.005Z,0.46
2022-07-27T05:41:04.527Z,0.03
2022-07-27T05:53:04.938Z,0.32
2022-07-27T06:05:05.384Z,0.99
2022-07-27T06:17:05.859Z,0.45
2022-07-27T06:29:09.940Z,0.43
2022-07-27T06:41:06.766Z,0.56
2022-07-27T06:53:07.208Z,0.94
2022-07-27T07:05:07.649Z,0.18
2022-07-27T07:17:08.118Z,0.09
2022-07-27T07:29:08.778Z,0.28
2022-07-27T07:41:09.052Z,0.06
2022-07-27T07:53:09.527Z,0.10
2022-07-27T08:05:09.955Z,0.56
2022-07-27T08:17:10.365Z,0.70
2022-07-27T08:29:13.815Z,1.09
2022-07-27T08:41:11.328Z,0.75
2022-07-27T08:53:11.793Z,0.79
2022-07-27T09:05:12.230Z,1.10
2022-07-27T09:17:47.185Z,0.70
2022-07-27T09:29:13.354Z,1.43
2022-07-27T09:41:13.613Z,1.35
2022-07-27T09:53:41.528Z,1.04
2022-07-27T10:05:14.602Z,1.39
2022-07-27T10:17:14.960Z,1.20
2022-07-27T10:29:15.428Z,1.40
2022-07-27T10:41:15.888Z,0.84
2022-07-27T10:53:16.324Z,0.77
2022-07-27T11:17:50.823Z,0.66
2022-07-27T11:29:17.702Z,0.91
2022-07-27T11:41:29.192Z,0.51
2022-07-27T11:53:18.623Z,0.18
2022-07-27T12:05:19.308Z,0.24
2022-07-27T12:17:19.651Z,0.29
2022-07-27T12:29:19.991Z,0.51
2022-07-27T12:41:20.445Z,0.61
2022-07-27T12:53:20.927Z,0.49
2022-07-27T13:09:12.626Z,0.80
2022-07-27T13:21:12.725Z,0.49
2022-07-27T13:33:13.151Z,0.48
2022-07-27T13:45:13.624Z,0.60
2022-07-27T13:57:14.097Z,0.45
2022-07-27T14:09:17.736Z,0.04
2022-07-27T14:21:15.044Z,0.08
2022-07-27T14:33:15.455Z,0.47
2022-07-27T14:45:15.888Z,0.41
2022-07-27T14:57:17.413Z,0.61
2022-07-27T15:09:17.256Z,0.37
2022-07-27T15:21:17.286Z,0.26
2022-07-27T15:33:17.725Z,0.02
2022-07-27T15:45:18.201Z,0.59
2022-07-27T15:57:18.650Z,0.19
2022-07-27T16:09:19.083Z,0.58
2022-07-27T16:21:19.519Z,0.27
2022-07-27T16:33:20.009Z,0.40
2022-07-27T16:45:20.476Z,0.31
2022-07-27T16:57:20.866Z,0.02
2022-07-27T17:09:21.373Z,0.00
2022-07-27T17:21:21.806Z,0.22
2022-07-27T17:33:22.288Z,0.00
2022-07-27T17:45:22.736Z,0.19
2022-07-27T17:57:23.181Z,0.38
2022-07-27T18:09:23.640Z,0.01
2022-07-27T18:21:24.119Z,0.53
2022-07-27T18:33:24.576Z,0.03
2022-07-27T18:45:34.471Z,0.09
2022-07-27T18:57:25.411Z,0.00
2022-07-27T19:09:25.963Z,0.36
2022-07-27T19:21:26.379Z,0.13
2022-07-27T19:33:26.814Z,0.08
2022-07-27T19:45:27.877Z,0.01
2022-07-27T19:57:27.763Z,0.01
2022-07-27T20:09:28.189Z,0.01
2022-07-27T20:21:28.651Z,0.01
2022-07-27T20:33:32.809Z,0.01
2022-07-27T20:45:29.592Z,0.01
2022-07-27T20:57:30.010Z,0.01
2022-07-27T21:09:30.447Z,0.01
2022-07-27T21:21:30.908Z,0.01
2022-07-27T21:33:33.777Z,0.14
2022-07-27T21:45:31.871Z,0.00
2022-07-27T21:57:32.254Z,0.18
2022-07-27T22:09:32.715Z,0.02
2022-07-27T22:21:33.185Z,0.00
2022-07-27T22:33:33.594Z,0.10
2022-07-27T22:45:34.131Z,0.00
2022-07-27T22:57:34.528Z,0.06
2022-07-27T23:09:35.036Z,0.00
2022-07-27T23:21:35.457Z,0.00
2022-07-27T23:33:35.918Z,0.00
2022-07-27T23:45:36.363Z,0.00
2022-07-27T23:57:36.840Z,0.00
